sensor_id;sensor_type;location;lat;lon;timestamp;P1;durP1;ratioP1;P2;durP2;ratioP2
24261;SDS011;12385;51.412;5.540;2022-12-20T00:01:29;5.25;;;1.70;;
24261;SDS011;12385;51.412;5.540;2022-12-20T00:03:57;3.95;;;1.77;;
24261;SDS011;12385;51.412;5.540;2022-12-20T00:06:29;2.80;;;1.80;;
24261;SDS011;12385;51.412;5.540;2022-12-20T00:09:00;3.40;;;1.58;;
24261;SDS011;12385;51.412;5.540;2022-12-20T00:11:26;5.93;;;3.10;;
24261;SDS011;12385;51.412;5.540;2022-12-20T00:13:52;4.97;;;1.70;;
24261;SDS011;12385;51.412;5.540;2022-12-20T00:16:19;6.57;;;1.75;;
24261;SDS011;12385;51.412;5.540;2022-12-20T00:18:49;2.67;;;1.60;;
24261;SDS011;12385;51.412;5.540;2022-12-20T00:21:16;3.40;;;1.85;;
24261;SDS011;12385;51.412;5.540;2022-12-20T00:23:41;5.15;;;1.50;;
24261;SDS011;12385;51.412;5.540;2022-12-20T00:26:09;2.75;;;1.60;;
24261;SDS011;12385;51.412;5.540;2022-12-20T00:28:36;2.42;;;1.48;;
24261;SDS011;12385;51.412;5.540;2022-12-20T00:31:02;2.97;;;1.40;;
24261;SDS011;12385;51.412;5.540;2022-12-20T00:33:29;5.35;;;1.63;;
24261;SDS011;12385;51.412;5.540;2022-12-20T00:35:55;4.32;;;1.80;;
24261;SDS011;12385;51.412;5.540;2022-12-20T00:38:24;4.03;;;1.63;;
24261;SDS011;12385;51.412;5.540;2022-12-20T00:43:33;3.92;;;2.00;;
24261;SDS011;12385;51.412;5.540;2022-12-20T00:45:59;3.72;;;1.83;;
24261;SDS011;12385;51.412;5.540;2022-12-20T00:48:25;3.67;;;1.60;;
24261;SDS011;12385;51.412;5.540;2022-12-20T00:50:56;2.85;;;1.63;;
24261;SDS011;12385;51.412;5.540;2022-12-20T00:53:26;3.53;;;1.60;;
24261;SDS011;12385;51.412;5.540;2022-12-20T00:55:52;3.47;;;1.73;;
24261;SDS011;12385;51.412;5.540;2022-12-20T00:58:19;3.63;;;1.60;;
24261;SDS011;12385;51.412;5.540;2022-12-20T01:00:44;2.45;;;1.58;;
24261;SDS011;12385;51.412;5.540;2022-12-20T01:03:10;2.83;;;1.42;;
24261;SDS011;12385;51.412;5.540;2022-12-20T01:05:36;2.80;;;1.67;;
24261;SDS011;12385;51.412;5.540;2022-12-20T01:08:02;4.45;;;1.60;;
24261;SDS011;12385;51.412;5.540;2022-12-20T01:10:28;2.85;;;1.60;;
24261;SDS011;12385;51.412;5.540;2022-12-20T01:12:53;6.25;;;1.90;;
24261;SDS011;12385;51.412;5.540;2022-12-20T01:15:19;2.58;;;1.55;;
24261;SDS011;12385;51.412;5.540;2022-12-20T01:17:45;6.18;;;1.75;;
24261;SDS011;12385;51.412;5.540;2022-12-20T01:20:11;4.68;;;1.67;;
24261;SDS011;12385;51.412;5.540;2022-12-20T01:22:37;5.43;;;1.85;;
24261;SDS011;12385;51.412;5.540;2022-12-20T01:25:03;4.07;;;1.80;;
24261;SDS011;12385;51.412;5.540;2022-12-20T01:27:28;3.30;;;1.95;;
24261;SDS011;12385;51.412;5.540;2022-12-20T01:29:54;4.20;;;1.95;;
24261;SDS011;12385;51.412;5.540;2022-12-20T01:32:20;2.80;;;2.00;;
24261;SDS011;12385;51.412;5.540;2022-12-20T01:34:46;5.88;;;1.90;;
24261;SDS011;12385;51.412;5.540;2022-12-20T01:37:12;4.90;;;2.20;;
24261;SDS011;12385;51.412;5.540;2022-12-20T01:39:37;6.55;;;2.42;;
24261;SDS011;12385;51.412;5.540;2022-12-20T01:42:03;4.07;;;2.17;;
24261;SDS011;12385;51.412;5.540;2022-12-20T01:46:55;4.97;;;2.40;;
24261;SDS011;12385;51.412;5.540;2022-12-20T01:51:47;4.10;;;2.33;;
24261;SDS011;12385;51.412;5.540;2022-12-20T01:54:24;3.55;;;2.30;;
24261;SDS011;12385;51.412;5.540;2022-12-20T01:56:54;5.97;;;2.33;;
24261;SDS011;12385;51.412;5.540;2022-12-20T01:59:24;6.07;;;2.35;;
24261;SDS011;12385;51.412;5.540;2022-12-20T02:01:51;5.25;;;2.75;;
24261;SDS011;12385;51.412;5.540;2022-12-20T02:04:16;3.50;;;2.40;;
24261;SDS011;12385;51.412;5.540;2022-12-20T02:06:42;5.35;;;2.60;;
24261;SDS011;12385;51.412;5.540;2022-12-20T02:09:08;4.18;;;2.72;;
24261;SDS011;12385;51.412;5.540;2022-12-20T02:27:31;3.03;;;2.00;;
24261;SDS011;12385;51.412;5.540;2022-12-20T02:30:06;3.80;;;2.17;;
24261;SDS011;12385;51.412;5.540;2022-12-20T02:35:12;6.93;;;2.42;;
24261;SDS011;12385;51.412;5.540;2022-12-20T02:37:52;3.83;;;2.20;;
24261;SDS011;12385;51.412;5.540;2022-12-20T02:40:21;3.83;;;2.08;;
24261;SDS011;12385;51.412;5.540;2022-12-20T02:42:51;3.20;;;2.08;;
24261;SDS011;12385;51.412;5.540;2022-12-20T02:45:22;3.58;;;1.90;;
24261;SDS011;12385;51.412;5.540;2022-12-20T02:48:02;2.50;;;1.80;;
24261;SDS011;12385;51.412;5.540;2022-12-20T02:50:33;3.47;;;2.03;;
24261;SDS011;12385;51.412;5.540;2022-12-20T02:53:02;3.83;;;2.08;;
24261;SDS011;12385;51.412;5.540;2022-12-20T02:58:29;4.65;;;1.90;;
24261;SDS011;12385;51.412;5.540;2022-12-20T03:01:08;4.93;;;1.88;;
24261;SDS011;12385;51.412;5.540;2022-12-20T03:03:36;4.20;;;1.90;;
24261;SDS011;12385;51.412;5.540;2022-12-20T03:06:02;5.07;;;1.98;;
24261;SDS011;12385;51.412;5.540;2022-12-20T03:08:28;2.88;;;1.80;;
24261;SDS011;12385;51.412;5.540;2022-12-20T03:10:54;4.18;;;2.30;;
24261;SDS011;12385;51.412;5.540;2022-12-20T03:13:21;4.05;;;1.90;;
24261;SDS011;12385;51.412;5.540;2022-12-20T03:15:48;3.88;;;1.75;;
24261;SDS011;12385;51.412;5.540;2022-12-20T03:18:14;5.50;;;1.80;;
24261;SDS011;12385;51.412;5.540;2022-12-20T03:20:40;3.35;;;1.73;;
24261;SDS011;12385;51.412;5.540;2022-12-20T03:23:05;3.40;;;1.63;;
24261;SDS011;12385;51.412;5.540;2022-12-20T03:25:31;3.95;;;2.00;;
24261;SDS011;12385;51.412;5.540;2022-12-20T03:27:57;4.93;;;1.80;;
24261;SDS011;12385;51.412;5.540;2022-12-20T03:30:23;4.97;;;1.90;;
24261;SDS011;12385;51.412;5.540;2022-12-20T03:32:49;4.65;;;2.10;;
24261;SDS011;12385;51.412;5.540;2022-12-20T03:35:14;4.68;;;1.80;;
24261;SDS011;12385;51.412;5.540;2022-12-20T03:37:40;6.35;;;2.00;;
24261;SDS011;12385;51.412;5.540;2022-12-20T03:40:06;3.55;;;1.60;;
24261;SDS011;12385;51.412;5.540;2022-12-20T03:42:32;5.15;;;2.00;;
24261;SDS011;12385;51.412;5.540;2022-12-20T03:44:58;5.03;;;1.90;;
24261;SDS011;12385;51.412;5.540;2022-12-20T03:47:23;4.53;;;1.77;;
24261;SDS011;12385;51.412;5.540;2022-12-20T03:49:49;2.50;;;1.63;;
24261;SDS011;12385;51.412;5.540;2022-12-20T03:52:15;3.10;;;1.85;;
24261;SDS011;12385;51.412;5.540;2022-12-20T03:54:41;2.92;;;1.70;;
24261;SDS011;12385;51.412;5.540;2022-12-20T03:57:07;3.15;;;1.70;;
24261;SDS011;12385;51.412;5.540;2022-12-20T03:59:32;2.38;;;1.67;;
24261;SDS011;12385;51.412;5.540;2022-12-20T04:01:59;3.30;;;1.75;;
24261;SDS011;12385;51.412;5.540;2022-12-20T04:04:25;4.93;;;1.70;;
24261;SDS011;12385;51.412;5.540;2022-12-20T04:06:50;4.97;;;1.75;;
24261;SDS011;12385;51.412;5.540;2022-12-20T04:09:16;3.05;;;1.60;;
24261;SDS011;12385;51.412;5.540;2022-12-20T04:11:42;2.72;;;1.58;;
24261;SDS011;12385;51.412;5.540;2022-12-20T04:14:07;6.57;;;1.85;;
24261;SDS011;12385;51.412;5.540;2022-12-20T04:16:33;3.63;;;1.63;;
24261;SDS011;12385;51.412;5.540;2022-12-20T04:18:59;3.67;;;1.92;;
24261;SDS011;12385;51.412;5.540;2022-12-20T04:21:26;2.92;;;1.83;;
24261;SDS011;12385;51.412;5.540;2022-12-20T04:23:53;3.00;;;1.63;;
24261;SDS011;12385;51.412;5.540;2022-12-20T04:26:20;2.97;;;1.58;;
24261;SDS011;12385;51.412;5.540;2022-12-20T04:28:46;3.88;;;1.70;;
24261;SDS011;12385;51.412;5.540;2022-12-20T04:31:11;3.28;;;1.73;;
24261;SDS011;12385;51.412;5.540;2022-12-20T04:33:37;3.85;;;1.60;;
24261;SDS011;12385;51.412;5.540;2022-12-20T04:36:03;4.03;;;1.65;;
24261;SDS011;12385;51.412;5.540;2022-12-20T04:38:29;2.00;;;1.45;;
24261;SDS011;12385;51.412;5.540;2022-12-20T04:40:55;2.88;;;1.50;;
24261;SDS011;12385;51.412;5.540;2022-12-20T04:43:21;2.88;;;1.48;;
24261;SDS011;12385;51.412;5.540;2022-12-20T04:45:48;2.90;;;1.40;;
24261;SDS011;12385;51.412;5.540;2022-12-20T04:48:16;2.20;;;1.55;;
24261;SDS011;12385;51.412;5.540;2022-12-20T04:50:46;5.28;;;1.60;;
24261;SDS011;12385;51.412;5.540;2022-12-20T04:53:15;4.15;;;1.88;;
24261;SDS011;12385;51.412;5.540;2022-12-20T04:55:59;4.88;;;1.90;;
24261;SDS011;12385;51.412;5.540;2022-12-20T04:58:25;3.70;;;1.50;;
24261;SDS011;12385;51.412;5.540;2022-12-20T05:00:50;3.85;;;2.00;;
24261;SDS011;12385;51.412;5.540;2022-12-20T05:03:17;3.78;;;1.75;;
24261;SDS011;12385;51.412;5.540;2022-12-20T05:05:43;3.30;;;1.77;;
24261;SDS011;12385;51.412;5.540;2022-12-20T05:08:09;4.65;;;1.77;;
24261;SDS011;12385;51.412;5.540;2022-12-20T05:10:35;2.83;;;1.70;;
24261;SDS011;12385;51.412;5.540;2022-12-20T05:13:01;4.63;;;1.88;;
24261;SDS011;12385;51.412;5.540;2022-12-20T05:15:26;4.03;;;1.65;;
24261;SDS011;12385;51.412;5.540;2022-12-20T05:17:52;5.93;;;1.70;;
24261;SDS011;12385;51.412;5.540;2022-12-20T05:20:23;6.50;;;1.50;;
24261;SDS011;12385;51.412;5.540;2022-12-20T05:22:50;4.22;;;1.67;;
24261;SDS011;12385;51.412;5.540;2022-12-20T05:25:34;3.47;;;1.73;;
24261;SDS011;12385;51.412;5.540;2022-12-20T05:28:20;6.03;;;1.80;;
24261;SDS011;12385;51.412;5.540;2022-12-20T05:30:46;6.43;;;1.90;;
24261;SDS011;12385;51.412;5.540;2022-12-20T05:33:11;5.45;;;1.80;;
24261;SDS011;12385;51.412;5.540;2022-12-20T05:35:37;3.30;;;1.73;;
24261;SDS011;12385;51.412;5.540;2022-12-20T05:38:02;3.63;;;2.08;;
24261;SDS011;12385;51.412;5.540;2022-12-20T05:40:28;6.00;;;1.80;;
24261;SDS011;12385;51.412;5.540;2022-12-20T05:42:53;2.78;;;1.70;;
24261;SDS011;12385;51.412;5.540;2022-12-20T05:45:19;3.67;;;2.03;;
24261;SDS011;12385;51.412;5.540;2022-12-20T05:47:45;3.92;;;1.50;;
24261;SDS011;12385;51.412;5.540;2022-12-20T05:50:11;4.63;;;2.08;;
24261;SDS011;12385;51.412;5.540;2022-12-20T05:52:37;5.97;;;2.10;;
24261;SDS011;12385;51.412;5.540;2022-12-20T05:55:02;6.97;;;1.73;;
24261;SDS011;12385;51.412;5.540;2022-12-20T05:57:28;3.95;;;1.90;;
24261;SDS011;12385;51.412;5.540;2022-12-20T05:59:54;8.27;;;1.70;;
24261;SDS011;12385;51.412;5.540;2022-12-20T06:02:19;3.35;;;2.03;;
24261;SDS011;12385;51.412;5.540;2022-12-20T06:04:45;5.25;;;1.92;;
24261;SDS011;12385;51.412;5.540;2022-12-20T06:07:10;3.03;;;1.67;;
24261;SDS011;12385;51.412;5.540;2022-12-20T06:09:36;4.80;;;2.00;;
24261;SDS011;12385;51.412;5.540;2022-12-20T06:12:01;3.83;;;1.92;;
24261;SDS011;12385;51.412;5.540;2022-12-20T06:14:27;6.35;;;2.10;;
24261;SDS011;12385;51.412;5.540;2022-12-20T06:16:53;3.13;;;1.75;;
24261;SDS011;12385;51.412;5.540;2022-12-20T06:19:18;3.88;;;1.90;;
24261;SDS011;12385;51.412;5.540;2022-12-20T06:21:44;5.65;;;2.05;;
24261;SDS011;12385;51.412;5.540;2022-12-20T06:24:10;4.25;;;1.73;;
24261;SDS011;12385;51.412;5.540;2022-12-20T06:26:35;4.65;;;1.88;;
24261;SDS011;12385;51.412;5.540;2022-12-20T06:29:02;3.28;;;1.85;;
24261;SDS011;12385;51.412;5.540;2022-12-20T06:31:31;5.05;;;1.63;;
24261;SDS011;12385;51.412;5.540;2022-12-20T06:33:59;3.90;;;1.50;;
24261;SDS011;12385;51.412;5.540;2022-12-20T06:36:25;3.35;;;1.60;;
24261;SDS011;12385;51.412;5.540;2022-12-20T06:38:51;5.93;;;1.92;;
24261;SDS011;12385;51.412;5.540;2022-12-20T06:41:16;3.80;;;1.52;;
24261;SDS011;12385;51.412;5.540;2022-12-20T06:43:42;3.35;;;1.50;;
24261;SDS011;12385;51.412;5.540;2022-12-20T06:46:08;2.28;;;1.52;;
24261;SDS011;12385;51.412;5.540;2022-12-20T06:48:34;4.88;;;1.40;;
24261;SDS011;12385;51.412;5.540;2022-12-20T06:50:59;9.93;;;1.88;;
24261;SDS011;12385;51.412;5.540;2022-12-20T06:53:25;4.70;;;1.70;;
24261;SDS011;12385;51.412;5.540;2022-12-20T06:55:51;3.50;;;1.77;;
24261;SDS011;12385;51.412;5.540;2022-12-20T06:58:17;2.67;;;1.48;;
24261;SDS011;12385;51.412;5.540;2022-12-20T07:00:44;3.33;;;1.70;;
24261;SDS011;12385;51.412;5.540;2022-12-20T07:03:09;3.13;;;1.70;;
24261;SDS011;12385;51.412;5.540;2022-12-20T07:05:35;2.95;;;1.38;;
24261;SDS011;12385;51.412;5.540;2022-12-20T07:08:01;4.32;;;1.63;;
24261;SDS011;12385;51.412;5.540;2022-12-20T07:10:29;4.47;;;1.48;;
24261;SDS011;12385;51.412;5.540;2022-12-20T07:12:55;3.63;;;1.27;;
24261;SDS011;12385;51.412;5.540;2022-12-20T07:15:21;3.80;;;1.30;;
24261;SDS011;12385;51.412;5.540;2022-12-20T07:17:47;3.22;;;1.40;;
24261;SDS011;12385;51.412;5.540;2022-12-20T07:20:12;3.10;;;1.25;;
24261;SDS011;12385;51.412;5.540;2022-12-20T07:22:40;3.03;;;1.50;;
24261;SDS011;12385;51.412;5.540;2022-12-20T07:25:06;2.75;;;1.40;;
24261;SDS011;12385;51.412;5.540;2022-12-20T07:27:32;2.65;;;1.52;;
24261;SDS011;12385;51.412;5.540;2022-12-20T07:29:58;2.92;;;1.40;;
24261;SDS011;12385;51.412;5.540;2022-12-20T07:32:24;4.15;;;1.55;;
24261;SDS011;12385;51.412;5.540;2022-12-20T07:34:49;2.20;;;1.50;;
24261;SDS011;12385;51.412;5.540;2022-12-20T07:37:15;1.92;;;1.30;;
24261;SDS011;12385;51.412;5.540;2022-12-20T07:39:41;5.45;;;1.70;;
24261;SDS011;12385;51.412;5.540;2022-12-20T07:42:07;6.70;;;1.42;;
24261;SDS011;12385;51.412;5.540;2022-12-20T07:44:33;3.22;;;1.20;;
24261;SDS011;12385;51.412;5.540;2022-12-20T07:46:59;2.45;;;1.40;;
24261;SDS011;12385;51.412;5.540;2022-12-20T07:49:25;4.65;;;1.15;;
24261;SDS011;12385;51.412;5.540;2022-12-20T07:51:52;6.10;;;1.60;;
24261;SDS011;12385;51.412;5.540;2022-12-20T07:54:23;2.97;;;1.50;;
24261;SDS011;12385;51.412;5.540;2022-12-20T07:56:53;2.25;;;1.20;;
24261;SDS011;12385;51.412;5.540;2022-12-20T07:59:24;5.53;;;1.60;;
24261;SDS011;12385;51.412;5.540;2022-12-20T08:01:55;4.10;;;1.23;;
24261;SDS011;12385;51.412;5.540;2022-12-20T08:04:22;2.15;;;1.27;;
24261;SDS011;12385;51.412;5.540;2022-12-20T08:06:51;3.50;;;1.30;;
24261;SDS011;12385;51.412;5.540;2022-12-20T08:09:20;5.80;;;1.33;;
24261;SDS011;12385;51.412;5.540;2022-12-20T08:11:48;2.95;;;1.30;;
24261;SDS011;12385;51.412;5.540;2022-12-20T08:14:15;1.88;;;1.17;;
24261;SDS011;12385;51.412;5.540;2022-12-20T08:16:42;4.38;;;1.33;;
24261;SDS011;12385;51.412;5.540;2022-12-20T08:19:08;2.50;;;1.30;;
24261;SDS011;12385;51.412;5.540;2022-12-20T08:21:35;4.78;;;1.45;;
24261;SDS011;12385;51.412;5.540;2022-12-20T08:24:00;4.45;;;1.40;;
24261;SDS011;12385;51.412;5.540;2022-12-20T08:26:26;2.97;;;1.30;;
24261;SDS011;12385;51.412;5.540;2022-12-20T08:28:53;2.63;;;1.40;;
24261;SDS011;12385;51.412;5.540;2022-12-20T08:31:19;7.95;;;1.60;;
24261;SDS011;12385;51.412;5.540;2022-12-20T08:33:45;3.65;;;1.60;;
24261;SDS011;12385;51.412;5.540;2022-12-20T08:36:11;3.47;;;1.33;;
24261;SDS011;12385;51.412;5.540;2022-12-20T08:38:37;2.65;;;1.30;;
24261;SDS011;12385;51.412;5.540;2022-12-20T08:41:06;3.50;;;1.60;;
24261;SDS011;12385;51.412;5.540;2022-12-20T08:43:34;6.50;;;1.90;;
24261;SDS011;12385;51.412;5.540;2022-12-20T08:46:00;2.65;;;1.40;;
24261;SDS011;12385;51.412;5.540;2022-12-20T08:48:26;4.50;;;1.50;;
24261;SDS011;12385;51.412;5.540;2022-12-20T08:50:53;3.15;;;1.20;;
24261;SDS011;12385;51.412;5.540;2022-12-20T08:53:30;2.75;;;1.33;;
24261;SDS011;12385;51.412;5.540;2022-12-20T08:56:09;6.22;;;1.80;;
24261;SDS011;12385;51.412;5.540;2022-12-20T08:58:37;5.00;;;1.45;;
24261;SDS011;12385;51.412;5.540;2022-12-20T09:01:07;3.90;;;1.63;;
24261;SDS011;12385;51.412;5.540;2022-12-20T09:03:35;1.92;;;1.40;;
24261;SDS011;12385;51.412;5.540;2022-12-20T09:06:05;7.00;;;1.50;;
24261;SDS011;12385;51.412;5.540;2022-12-20T09:08:33;4.68;;;1.50;;
24261;SDS011;12385;51.412;5.540;2022-12-20T09:11:03;4.63;;;1.65;;
24261;SDS011;12385;51.412;5.540;2022-12-20T09:13:32;3.20;;;1.55;;
24261;SDS011;12385;51.412;5.540;2022-12-20T09:15:59;3.17;;;1.50;;
24261;SDS011;12385;51.412;5.540;2022-12-20T09:18:28;3.38;;;1.38;;
24261;SDS011;12385;51.412;5.540;2022-12-20T09:20:57;4.15;;;1.55;;
24261;SDS011;12385;51.412;5.540;2022-12-20T09:23:25;4.00;;;1.40;;
24261;SDS011;12385;51.412;5.540;2022-12-20T09:25:51;3.15;;;1.60;;
24261;SDS011;12385;51.412;5.540;2022-12-20T09:28:16;1.85;;;1.33;;
24261;SDS011;12385;51.412;5.540;2022-12-20T09:30:42;2.63;;;1.33;;
24261;SDS011;12385;51.412;5.540;2022-12-20T09:33:08;4.07;;;1.52;;
24261;SDS011;12385;51.412;5.540;2022-12-20T09:35:33;4.03;;;1.40;;
24261;SDS011;12385;51.412;5.540;2022-12-20T09:37:59;6.45;;;1.63;;
24261;SDS011;12385;51.412;5.540;2022-12-20T09:40:26;2.70;;;1.42;;
24261;SDS011;12385;51.412;5.540;2022-12-20T09:42:57;6.03;;;1.80;;
24261;SDS011;12385;51.412;5.540;2022-12-20T09:45:24;2.05;;;1.40;;
24261;SDS011;12385;51.412;5.540;2022-12-20T09:47:53;5.97;;;1.42;;
24261;SDS011;12385;51.412;5.540;2022-12-20T09:50:19;5.63;;;1.70;;
24261;SDS011;12385;51.412;5.540;2022-12-20T09:53:04;4.18;;;1.30;;
24261;SDS011;12385;51.412;5.540;2022-12-20T09:56:04;4.45;;;1.70;;
24261;SDS011;12385;51.412;5.540;2022-12-20T09:58:55;2.78;;;1.27;;
24261;SDS011;12385;51.412;5.540;2022-12-20T10:01:24;3.03;;;1.75;;
24261;SDS011;12385;51.412;5.540;2022-12-20T10:03:52;4.22;;;1.85;;
24261;SDS011;12385;51.412;5.540;2022-12-20T10:06:27;3.15;;;1.67;;
24261;SDS011;12385;51.412;5.540;2022-12-20T10:09:35;4.60;;;1.77;;
24261;SDS011;12385;51.412;5.540;2022-12-20T10:25:21;4.65;;;1.52;;
24261;SDS011;12385;51.412;5.540;2022-12-20T10:30:25;7.55;;;1.40;;
24261;SDS011;12385;51.412;5.540;2022-12-20T10:32:54;6.28;;;2.15;;
24261;SDS011;12385;51.412;5.540;2022-12-20T10:35:36;3.22;;;1.70;;
24261;SDS011;12385;51.412;5.540;2022-12-20T10:38:10;4.93;;;1.63;;
24261;SDS011;12385;51.412;5.540;2022-12-20T10:40:48;6.53;;;1.80;;
24261;SDS011;12385;51.412;5.540;2022-12-20T10:43:27;4.30;;;1.63;;
24261;SDS011;12385;51.412;5.540;2022-12-20T10:46:06;2.90;;;1.60;;
24261;SDS011;12385;51.412;5.540;2022-12-20T10:48:34;4.25;;;1.73;;
24261;SDS011;12385;51.412;5.540;2022-12-20T10:51:03;2.87;;;1.77;;
24261;SDS011;12385;51.412;5.540;2022-12-20T10:53:53;9.60;;;2.10;;
24261;SDS011;12385;51.412;5.540;2022-12-20T10:56:28;4.68;;;2.00;;
24261;SDS011;12385;51.412;5.540;2022-12-20T10:59:02;5.70;;;2.03;;
24261;SDS011;12385;51.412;5.540;2022-12-20T11:01:50;4.05;;;1.90;;
24261;SDS011;12385;51.412;5.540;2022-12-20T11:04:26;4.53;;;2.28;;
24261;SDS011;12385;51.412;5.540;2022-12-20T11:06:57;5.57;;;2.20;;
24261;SDS011;12385;51.412;5.540;2022-12-20T11:09:34;5.38;;;2.60;;
24261;SDS011;12385;51.412;5.540;2022-12-20T11:14:38;6.68;;;2.67;;
24261;SDS011;12385;51.412;5.540;2022-12-20T11:30:40;7.63;;;2.83;;
24261;SDS011;12385;51.412;5.540;2022-12-20T11:36:01;6.93;;;2.83;;
24261;SDS011;12385;51.412;5.540;2022-12-20T11:38:37;7.75;;;2.97;;
24261;SDS011;12385;51.412;5.540;2022-12-20T11:43:46;6.38;;;2.83;;
24261;SDS011;12385;51.412;5.540;2022-12-20T11:49:00;6.68;;;2.80;;
24261;SDS011;12385;51.412;5.540;2022-12-20T11:55:37;5.03;;;2.70;;
24261;SDS011;12385;51.412;5.540;2022-12-20T12:00:18;7.45;;;2.83;;
24261;SDS011;12385;51.412;5.540;2022-12-20T12:08:10;7.75;;;3.00;;
24261;SDS011;12385;51.412;5.540;2022-12-20T12:10:44;8.48;;;3.10;;
24261;SDS011;12385;51.412;5.540;2022-12-20T12:13:32;6.85;;;3.53;;
24261;SDS011;12385;51.412;5.540;2022-12-20T12:18:34;8.75;;;3.17;;
24261;SDS011;12385;51.412;5.540;2022-12-20T12:26:47;6.95;;;2.90;;
24261;SDS011;12385;51.412;5.540;2022-12-20T12:29:16;8.93;;;2.95;;
24261;SDS011;12385;51.412;5.540;2022-12-20T12:45:51;7.22;;;3.42;;
24261;SDS011;12385;51.412;5.540;2022-12-20T12:48:35;8.95;;;3.55;;
24261;SDS011;12385;51.412;5.540;2022-12-20T12:51:04;7.55;;;3.67;;
24261;SDS011;12385;51.412;5.540;2022-12-20T12:53:40;6.18;;;3.50;;
24261;SDS011;12385;51.412;5.540;2022-12-20T12:56:49;5.57;;;3.80;;
24261;SDS011;12385;51.412;5.540;2022-12-20T13:11:51;6.55;;;4.00;;
24261;SDS011;12385;51.412;5.540;2022-12-20T13:19:50;8.55;;;4.30;;
24261;SDS011;12385;51.412;5.540;2022-12-20T13:22:22;6.45;;;4.28;;
24261;SDS011;12385;51.412;5.540;2022-12-20T13:27:34;8.32;;;4.68;;
24261;SDS011;12385;51.412;5.540;2022-12-20T13:38:03;6.43;;;4.63;;
24261;SDS011;12385;51.412;5.540;2022-12-20T13:40:55;9.43;;;5.18;;
24261;SDS011;12385;51.412;5.540;2022-12-20T13:43:24;9.93;;;5.30;;
24261;SDS011;12385;51.412;5.540;2022-12-20T13:46:11;8.75;;;4.75;;
24261;SDS011;12385;51.412;5.540;2022-12-20T13:51:15;10.20;;;4.88;;
24261;SDS011;12385;51.412;5.540;2022-12-20T13:53:56;10.35;;;5.30;;
24261;SDS011;12385;51.412;5.540;2022-12-20T13:58:57;11.15;;;5.85;;
24261;SDS011;12385;51.412;5.540;2022-12-20T14:01:28;12.80;;;5.45;;
24261;SDS011;12385;51.412;5.540;2022-12-20T14:03:55;9.68;;;5.45;;
24261;SDS011;12385;51.412;5.540;2022-12-20T14:06:22;12.20;;;5.28;;
24261;SDS011;12385;51.412;5.540;2022-12-20T14:08:50;8.75;;;5.50;;
24261;SDS011;12385;51.412;5.540;2022-12-20T14:11:17;13.27;;;5.90;;
24261;SDS011;12385;51.412;5.540;2022-12-20T14:13:53;14.30;;;5.57;;
24261;SDS011;12385;51.412;5.540;2022-12-20T14:16:30;8.00;;;5.32;;
24261;SDS011;12385;51.412;5.540;2022-12-20T14:21:25;12.15;;;6.07;;
24261;SDS011;12385;51.412;5.540;2022-12-20T14:23:53;11.52;;;5.47;;
24261;SDS011;12385;51.412;5.540;2022-12-20T14:26:23;12.73;;;5.85;;
24261;SDS011;12385;51.412;5.540;2022-12-20T14:28:51;10.98;;;6.28;;
24261;SDS011;12385;51.412;5.540;2022-12-20T14:36:26;11.00;;;5.65;;
24261;SDS011;12385;51.412;5.540;2022-12-20T14:38:54;18.95;;;6.28;;
24261;SDS011;12385;51.412;5.540;2022-12-20T14:41:30;13.35;;;6.20;;
24261;SDS011;12385;51.412;5.540;2022-12-20T14:44:22;12.40;;;6.28;;
24261;SDS011;12385;51.412;5.540;2022-12-20T14:46:49;9.38;;;5.50;;
24261;SDS011;12385;51.412;5.540;2022-12-20T14:51:42;13.20;;;5.95;;
24261;SDS011;12385;51.412;5.540;2022-12-20T14:54:15;11.30;;;5.93;;
24261;SDS011;12385;51.412;5.540;2022-12-20T14:56:50;13.20;;;5.85;;
24261;SDS011;12385;51.412;5.540;2022-12-20T14:59:21;11.60;;;6.30;;
24261;SDS011;12385;51.412;5.540;2022-12-20T15:01:49;10.45;;;5.93;;
24261;SDS011;12385;51.412;5.540;2022-12-20T15:04:29;10.30;;;5.60;;
24261;SDS011;12385;51.412;5.540;2022-12-20T15:06:58;11.73;;;6.22;;
24261;SDS011;12385;51.412;5.540;2022-12-20T15:09:25;8.95;;;6.10;;
24261;SDS011;12385;51.412;5.540;2022-12-20T15:11:51;10.80;;;5.72;;
24261;SDS011;12385;51.412;5.540;2022-12-20T15:14:36;8.02;;;5.95;;
24261;SDS011;12385;51.412;5.540;2022-12-20T15:17:11;12.05;;;6.65;;
24261;SDS011;12385;51.412;5.540;2022-12-20T15:19:39;9.68;;;6.57;;
24261;SDS011;12385;51.412;5.540;2022-12-20T15:22:12;14.20;;;6.85;;
24261;SDS011;12385;51.412;5.540;2022-12-20T15:24:42;9.45;;;6.47;;
24261;SDS011;12385;51.412;5.540;2022-12-20T15:27:12;12.90;;;6.43;;
24261;SDS011;12385;51.412;5.540;2022-12-20T15:29:38;14.40;;;6.93;;
24261;SDS011;12385;51.412;5.540;2022-12-20T15:32:06;18.23;;;7.10;;
24261;SDS011;12385;51.412;5.540;2022-12-20T15:34:39;13.45;;;7.20;;
24261;SDS011;12385;51.412;5.540;2022-12-20T15:37:05;12.60;;;6.80;;
24261;SDS011;12385;51.412;5.540;2022-12-20T15:39:35;12.13;;;7.60;;
24261;SDS011;12385;51.412;5.540;2022-12-20T15:42:02;13.25;;;7.55;;
24261;SDS011;12385;51.412;5.540;2022-12-20T15:44:29;13.48;;;7.57;;
24261;SDS011;12385;51.412;5.540;2022-12-20T15:46:55;13.70;;;6.75;;
24261;SDS011;12385;51.412;5.540;2022-12-20T15:49:23;10.43;;;6.85;;
24261;SDS011;12385;51.412;5.540;2022-12-20T15:51:50;14.30;;;7.40;;
24261;SDS011;12385;51.412;5.540;2022-12-20T15:56:51;12.07;;;6.88;;
24261;SDS011;12385;51.412;5.540;2022-12-20T15:59:18;14.70;;;8.00;;
24261;SDS011;12385;51.412;5.540;2022-12-20T16:01:44;13.63;;;6.95;;
24261;SDS011;12385;51.412;5.540;2022-12-20T16:04:19;12.25;;;7.00;;
24261;SDS011;12385;51.412;5.540;2022-12-20T16:06:46;11.82;;;6.72;;
24261;SDS011;12385;51.412;5.540;2022-12-20T16:09:13;13.43;;;7.28;;
24261;SDS011;12385;51.412;5.540;2022-12-20T16:11:39;14.15;;;7.65;;
24261;SDS011;12385;51.412;5.540;2022-12-20T16:14:06;15.05;;;8.48;;
24261;SDS011;12385;51.412;5.540;2022-12-20T16:16:35;11.43;;;7.43;;
24261;SDS011;12385;51.412;5.540;2022-12-20T16:19:02;14.45;;;8.10;;
24261;SDS011;12385;51.412;5.540;2022-12-20T16:21:34;13.23;;;7.72;;
24261;SDS011;12385;51.412;5.540;2022-12-20T16:24:16;14.70;;;7.10;;
24261;SDS011;12385;51.412;5.540;2022-12-20T16:26:44;14.00;;;7.50;;
24261;SDS011;12385;51.412;5.540;2022-12-20T16:29:10;12.18;;;7.45;;
24261;SDS011;12385;51.412;5.540;2022-12-20T16:31:37;14.95;;;7.88;;
24261;SDS011;12385;51.412;5.540;2022-12-20T16:34:16;10.07;;;7.57;;
24261;SDS011;12385;51.412;5.540;2022-12-20T16:36:43;13.82;;;7.95;;
24261;SDS011;12385;51.412;5.540;2022-12-20T16:39:08;13.40;;;6.93;;
24261;SDS011;12385;51.412;5.540;2022-12-20T16:41:35;16.40;;;8.18;;
24261;SDS011;12385;51.412;5.540;2022-12-20T16:44:02;15.32;;;8.73;;
24261;SDS011;12385;51.412;5.540;2022-12-20T16:46:29;14.15;;;7.90;;
24261;SDS011;12385;51.412;5.540;2022-12-20T16:48:56;14.93;;;8.65;;
24261;SDS011;12385;51.412;5.540;2022-12-20T16:53:49;16.48;;;9.88;;
24261;SDS011;12385;51.412;5.540;2022-12-20T16:56:16;14.48;;;9.23;;
24261;SDS011;12385;51.412;5.540;2022-12-20T16:58:42;16.65;;;9.27;;
24261;SDS011;12385;51.412;5.540;2022-12-20T17:01:12;19.23;;;9.95;;
24261;SDS011;12385;51.412;5.540;2022-12-20T17:03:39;15.45;;;9.98;;
24261;SDS011;12385;51.412;5.540;2022-12-20T17:06:04;17.15;;;9.73;;
24261;SDS011;12385;51.412;5.540;2022-12-20T17:08:30;20.70;;;10.70;;
24261;SDS011;12385;51.412;5.540;2022-12-20T17:10:57;18.05;;;10.25;;
24261;SDS011;12385;51.412;5.540;2022-12-20T17:13:22;22.38;;;11.35;;
24261;SDS011;12385;51.412;5.540;2022-12-20T17:15:48;19.10;;;12.23;;
24261;SDS011;12385;51.412;5.540;2022-12-20T17:18:14;18.33;;;12.32;;
24261;SDS011;12385;51.412;5.540;2022-12-20T17:20:39;24.92;;;14.02;;
24261;SDS011;12385;51.412;5.540;2022-12-20T17:23:07;26.63;;;14.55;;
24261;SDS011;12385;51.412;5.540;2022-12-20T17:28:00;25.88;;;16.05;;
24261;SDS011;12385;51.412;5.540;2022-12-20T17:30:26;25.58;;;15.93;;